sensor_id;sensor_type;location;lat;lon;timestamp;temperature;humidity
4749;DHT22;2388;53.582;9.962;2023-07-20T00:02:17;15.70;99.90
4749;DHT22;2388;53.582;9.962;2023-07-20T00:04:43;15.70;99.90
4749;DHT22;2388;53.582;9.962;2023-07-20T00:07:08;15.70;99.90
4749;DHT22;2388;53.582;9.962;2023-07-20T00:09:34;15.70;99.90
4749;DHT22;2388;53.582;9.962;2023-07-20T00:11:59;15.70;99.90
4749;DHT22;2388;53.582;9.962;2023-07-20T00:14:25;15.80;99.90
4749;DHT22;2388;53.582;9.962;2023-07-20T00:16:51;15.80;99.90
4749;DHT22;2388;53.582;9.962;2023-07-20T00:19:25;15.80;99.90
4749;DHT22;2388;53.582;9.962;2023-07-20T00:21:52;15.80;99.90
4749;DHT22;2388;53.582;9.962;2023-07-20T00:24:17;15.80;99.90
4749;DHT22;2388;53.582;9.962;2023-07-20T00:26:44;15.90;99.90
4749;DHT22;2388;53.582;9.962;2023-07-20T00:29:09;15.80;99.90
4749;DHT22;2388;53.582;9.962;2023-07-20T00:31:35;15.80;99.90
4749;DHT22;2388;53.582;9.962;2023-07-20T00:34:05;15.80;99.90
4749;DHT22;2388;53.582;9.962;2023-07-20T00:36:31;15.80;99.90
4749;DHT22;2388;53.582;9.962;2023-07-20T00:38:57;15.80;99.90
4749;DHT22;2388;53.582;9.962;2023-07-20T00:41:22;15.80;99.90
4749;DHT22;2388;53.582;9.962;2023-07-20T00:43:48;15.80;99.90
4749;DHT22;2388;53.582;9.962;2023-07-20T00:46:13;15.90;99.90
4749;DHT22;2388;53.582;9.962;2023-07-20T00:48:40;15.90;99.90
4749;DHT22;2388;53.582;9.962;2023-07-20T00:51:06;15.90;99.90
4749;DHT22;2388;53.582;9.962;2023-07-20T00:53:32;16.00;99.90
4749;DHT22;2388;53.582;9.962;2023-07-20T00:55:58;15.90;99.90
4749;DHT22;2388;53.582;9.962;2023-07-20T00:58:23;15.90;99.90
4749;DHT22;2388;53.582;9.962;2023-07-20T01:00:49;15.90;99.90
4749;DHT22;2388;53.582;9.962;2023-07-20T01:03:15;15.90;99.90
4749;DHT22;2388;53.582;9.962;2023-07-20T01:05:41;15.90;99.90
4749;DHT22;2388;53.582;9.962;2023-07-20T01:08:21;15.80;99.90
4749;DHT22;2388;53.582;9.962;2023-07-20T01:10:59;15.80;99.90
4749;DHT22;2388;53.582;9.962;2023-07-20T01:13:28;15.70;99.90
4749;DHT22;2388;53.582;9.962;2023-07-20T01:16:00;15.70;99.90
4749;DHT22;2388;53.582;9.962;2023-07-20T01:18:26;15.70;99.90
4749;DHT22;2388;53.582;9.962;2023-07-20T01:20:54;15.70;99.90
4749;DHT22;2388;53.582;9.962;2023-07-20T01:26:37;15.60;99.90
4749;DHT22;2388;53.582;9.962;2023-07-20T01:29:24;15.60;99.90
4749;DHT22;2388;53.582;9.962;2023-07-20T01:31:54;15.50;99.90
4749;DHT22;2388;53.582;9.962;2023-07-20T01:34:22;15.50;99.90
4749;DHT22;2388;53.582;9.962;2023-07-20T01:36:50;15.50;99.90
4749;DHT22;2388;53.582;9.962;2023-07-20T01:39:18;15.50;99.90
4749;DHT22;2388;53.582;9.962;2023-07-20T01:41:43;15.40;99.90
4749;DHT22;2388;53.582;9.962;2023-07-20T01:44:10;15.40;99.90
4749;DHT22;2388;53.582;9.962;2023-07-20T01:46:36;15.50;99.90
4749;DHT22;2388;53.582;9.962;2023-07-20T01:49:02;15.50;99.90
4749;DHT22;2388;53.582;9.962;2023-07-20T01:51:27;15.50;99.90
4749;DHT22;2388;53.582;9.962;2023-07-20T01:53:53;15.50;99.90
4749;DHT22;2388;53.582;9.962;2023-07-20T01:56:19;15.50;99.90
4749;DHT22;2388;53.582;9.962;2023-07-20T01:58:44;15.60;99.90
4749;DHT22;2388;53.582;9.962;2023-07-20T02:01:10;15.50;99.90
4749;DHT22;2388;53.582;9.962;2023-07-20T02:03:35;15.50;99.90
4749;DHT22;2388;53.582;9.962;2023-07-20T02:06:01;15.50;99.90
4749;DHT22;2388;53.582;9.962;2023-07-20T02:08:26;15.60;99.90
4749;DHT22;2388;53.582;9.962;2023-07-20T02:10:52;15.60;99.90
4749;DHT22;2388;53.582;9.962;2023-07-20T02:13:17;15.60;99.90
4749;DHT22;2388;53.582;9.962;2023-07-20T02:15:43;15.60;99.90
4749;DHT22;2388;53.582;9.962;2023-07-20T02:18:08;15.60;99.90
4749;DHT22;2388;53.582;9.962;2023-07-20T02:20:35;15.50;99.90
4749;DHT22;2388;53.582;9.962;2023-07-20T02:23:00;15.60;99.90
4749;DHT22;2388;53.582;9.962;2023-07-20T02:25:26;15.60;99.90
4749;DHT22;2388;53.582;9.962;2023-07-20T02:27:52;15.60;99.90
4749;DHT22;2388;53.582;9.962;2023-07-20T02:30:18;15.60;99.90
4749;DHT22;2388;53.582;9.962;2023-07-20T02:32:43;15.50;99.90
4749;DHT22;2388;53.582;9.962;2023-07-20T02:35:11;15.60;99.90
4749;DHT22;2388;53.582;9.962;2023-07-20T02:37:36;15.50;99.90
4749;DHT22;2388;53.582;9.962;2023-07-20T02:40:02;15.50;99.90
4749;DHT22;2388;53.582;9.962;2023-07-20T02:42:29;15.50;99.90
4749;DHT22;2388;53.582;9.962;2023-07-20T02:44:55;15.50;99.90
4749;DHT22;2388;53.582;9.962;2023-07-20T02:47:20;15.50;99.90
4749;DHT22;2388;53.582;9.962;2023-07-20T02:49:46;15.50;99.90
4749;DHT22;2388;53.582;9.962;2023-07-20T02:52:11;15.40;99.90
4749;DHT22;2388;53.582;9.962;2023-07-20T02:54:37;15.40;99.90
4749;DHT22;2388;53.582;9.962;2023-07-20T02:57:03;15.40;99.90
4749;DHT22;2388;53.582;9.962;2023-07-20T02:59:28;15.40;99.90
4749;DHT22;2388;53.582;9.962;2023-07-20T03:01:55;15.50;99.90
4749;DHT22;2388;53.582;9.962;2023-07-20T03:04:21;15.50;99.90
4749;DHT22;2388;53.582;9.962;2023-07-20T03:06:47;16.10;99.90
4749;DHT22;2388;53.582;9.962;2023-07-20T03:09:12;15.40;99.90
4749;DHT22;2388;53.582;9.962;2023-07-20T03:11:38;15.50;99.90
4749;DHT22;2388;53.582;9.962;2023-07-20T03:14:03;15.50;99.90
4749;DHT22;2388;53.582;9.962;2023-07-20T03:16:29;15.40;99.90
4749;DHT22;2388;53.582;9.962;2023-07-20T03:18:58;15.40;99.90
4749;DHT22;2388;53.582;9.962;2023-07-20T03:21:25;15.50;99.90
4749;DHT22;2388;53.582;9.962;2023-07-20T03:23:50;15.50;99.90
4749;DHT22;2388;53.582;9.962;2023-07-20T03:26:16;15.50;99.90
4749;DHT22;2388;53.582;9.962;2023-07-20T03:28:41;15.50;99.90
4749;DHT22;2388;53.582;9.962;2023-07-20T03:31:06;15.50;99.90
4749;DHT22;2388;53.582;9.962;2023-07-20T03:33:32;15.40;99.90
4749;DHT22;2388;53.582;9.962;2023-07-20T03:35:59;15.40;99.90
4749;DHT22;2388;53.582;9.962;2023-07-20T03:38:25;15.40;99.90
4749;DHT22;2388;53.582;9.962;2023-07-20T03:40:52;15.40;99.90
4749;DHT22;2388;53.582;9.962;2023-07-20T03:43:18;15.30;99.90
4749;DHT22;2388;53.582;9.962;2023-07-20T03:45:43;15.30;99.90
4749;DHT22;2388;53.582;9.962;2023-07-20T03:48:11;15.30;99.90
4749;DHT22;2388;53.582;9.962;2023-07-20T03:50:36;15.30;99.90
4749;DHT22;2388;53.582;9.962;2023-07-20T03:53:02;15.30;99.90
4749;DHT22;2388;53.582;9.962;2023-07-20T03:55:27;15.30;99.90
4749;DHT22;2388;53.582;9.962;2023-07-20T03:57:53;15.30;99.90
4749;DHT22;2388;53.582;9.962;2023-07-20T04:00:19;15.30;99.90
4749;DHT22;2388;53.582;9.962;2023-07-20T04:02:44;15.40;99.90
4749;DHT22;2388;53.582;9.962;2023-07-20T04:05:10;15.30;99.90
4749;DHT22;2388;53.582;9.962;2023-07-20T04:07:35;15.30;99.90
4749;DHT22;2388;53.582;9.962;2023-07-20T04:10:01;15.20;99.90
4749;DHT22;2388;53.582;9.962;2023-07-20T04:12:26;15.20;99.90
4749;DHT22;2388;53.582;9.962;2023-07-20T04:14:52;15.20;99.90
4749;DHT22;2388;53.582;9.962;2023-07-20T04:17:18;15.20;99.90
4749;DHT22;2388;53.582;9.962;2023-07-20T04:19:43;15.30;99.90
4749;DHT22;2388;53.582;9.962;2023-07-20T04:22:09;15.30;99.90
4749;DHT22;2388;53.582;9.962;2023-07-20T04:24:35;15.30;99.90
4749;DHT22;2388;53.582;9.962;2023-07-20T04:27:00;15.30;99.90
4749;DHT22;2388;53.582;9.962;2023-07-20T04:29:26;15.30;99.90
4749;DHT22;2388;53.582;9.962;2023-07-20T04:31:51;15.30;99.90
4749;DHT22;2388;53.582;9.962;2023-07-20T04:34:17;15.30;99.90
4749;DHT22;2388;53.582;9.962;2023-07-20T04:36:42;15.20;99.90
4749;DHT22;2388;53.582;9.962;2023-07-20T04:39:09;15.30;99.90
4749;DHT22;2388;53.582;9.962;2023-07-20T04:41:35;15.30;99.90
4749;DHT22;2388;53.582;9.962;2023-07-20T04:44:00;15.30;99.90
4749;DHT22;2388;53.582;9.962;2023-07-20T04:46:25;15.30;99.90
4749;DHT22;2388;53.582;9.962;2023-07-20T04:48:51;15.40;99.90
4749;DHT22;2388;53.582;9.962;2023-07-20T04:51:16;15.40;99.90
4749;DHT22;2388;53.582;9.962;2023-07-20T04:53:49;15.40;99.90
4749;DHT22;2388;53.582;9.962;2023-07-20T04:56:14;15.40;99.90
4749;DHT22;2388;53.582;9.962;2023-07-20T04:58:40;15.40;99.90
4749;DHT22;2388;53.582;9.962;2023-07-20T05:01:05;15.40;99.90
4749;DHT22;2388;53.582;9.962;2023-07-20T05:03:31;15.40;99.90
4749;DHT22;2388;53.582;9.962;2023-07-20T05:05:57;15.40;99.90
4749;DHT22;2388;53.582;9.962;2023-07-20T05:08:23;15.40;99.90
4749;DHT22;2388;53.582;9.962;2023-07-20T05:10:48;15.30;99.90
4749;DHT22;2388;53.582;9.962;2023-07-20T05:13:14;15.40;99.90
4749;DHT22;2388;53.582;9.962;2023-07-20T05:15:40;15.40;99.90
4749;DHT22;2388;53.582;9.962;2023-07-20T05:18:05;15.40;99.90
4749;DHT22;2388;53.582;9.962;2023-07-20T05:20:31;15.40;99.90
4749;DHT22;2388;53.582;9.962;2023-07-20T05:22:58;15.40;99.90
4749;DHT22;2388;53.582;9.962;2023-07-20T05:25:24;15.40;99.90
4749;DHT22;2388;53.582;9.962;2023-07-20T05:27:49;15.40;99.90
4749;DHT22;2388;53.582;9.962;2023-07-20T05:30:15;15.40;99.90
4749;DHT22;2388;53.582;9.962;2023-07-20T05:32:41;15.40;99.90
4749;DHT22;2388;53.582;9.962;2023-07-20T05:35:07;15.40;99.90
4749;DHT22;2388;53.582;9.962;2023-07-20T05:37:33;15.40;99.90
4749;DHT22;2388;53.582;9.962;2023-07-20T05:39:59;15.40;99.90
4749;DHT22;2388;53.582;9.962;2023-07-20T05:42:24;15.50;99.90
4749;DHT22;2388;53.582;9.962;2023-07-20T05:44:50;15.50;99.90
4749;DHT22;2388;53.582;9.962;2023-07-20T05:47:18;15.60;99.90
4749;DHT22;2388;53.582;9.962;2023-07-20T05:49:43;15.60;99.90
4749;DHT22;2388;53.582;9.962;2023-07-20T05:52:09;15.70;99.90
4749;DHT22;2388;53.582;9.962;2023-07-20T05:54:34;15.80;99.90
4749;DHT22;2388;53.582;9.962;2023-07-20T05:57:00;15.90;99.90
4749;DHT22;2388;53.582;9.962;2023-07-20T05:59:27;15.90;99.90
4749;DHT22;2388;53.582;9.962;2023-07-20T06:01:54;16.00;99.90
4749;DHT22;2388;53.582;9.962;2023-07-20T06:04:20;16.00;99.90
4749;DHT22;2388;53.582;9.962;2023-07-20T06:06:45;16.00;99.90
4749;DHT22;2388;53.582;9.962;2023-07-20T06:09:11;16.00;99.90
4749;DHT22;2388;53.582;9.962;2023-07-20T06:11:38;16.00;99.90
4749;DHT22;2388;53.582;9.962;2023-07-20T06:14:04;16.10;99.90
4749;DHT22;2388;53.582;9.962;2023-07-20T06:16:30;16.10;99.90
4749;DHT22;2388;53.582;9.962;2023-07-20T06:18:55;16.10;99.90
4749;DHT22;2388;53.582;9.962;2023-07-20T06:21:21;16.10;99.90
4749;DHT22;2388;53.582;9.962;2023-07-20T06:23:46;16.10;99.90
4749;DHT22;2388;53.582;9.962;2023-07-20T06:26:12;16.20;99.90
4749;DHT22;2388;53.582;9.962;2023-07-20T06:28:37;16.20;99.90
4749;DHT22;2388;53.582;9.962;2023-07-20T06:31:03;16.20;99.90
4749;DHT22;2388;53.582;9.962;2023-07-20T06:33:29;16.30;99.90
4749;DHT22;2388;53.582;9.962;2023-07-20T06:35:55;16.40;99.90
4749;DHT22;2388;53.582;9.962;2023-07-20T06:38:22;16.40;99.90
4749;DHT22;2388;53.582;9.962;2023-07-20T06:40:49;16.40;99.90
4749;DHT22;2388;53.582;9.962;2023-07-20T06:43:15;16.40;99.90
4749;DHT22;2388;53.582;9.962;2023-07-20T06:45:41;16.30;99.90
4749;DHT22;2388;53.582;9.962;2023-07-20T06:48:07;16.30;99.90
4749;DHT22;2388;53.582;9.962;2023-07-20T06:50:32;16.30;99.90
4749;DHT22;2388;53.582;9.962;2023-07-20T06:52:58;16.30;99.90
4749;DHT22;2388;53.582;9.962;2023-07-20T06:55:24;16.30;99.90
4749;DHT22;2388;53.582;9.962;2023-07-20T06:57:49;16.30;99.90
4749;DHT22;2388;53.582;9.962;2023-07-20T07:00:15;16.40;99.90
4749;DHT22;2388;53.582;9.962;2023-07-20T07:02:40;16.40;99.90
4749;DHT22;2388;53.582;9.962;2023-07-20T07:05:06;16.50;99.90
4749;DHT22;2388;53.582;9.962;2023-07-20T07:07:32;16.50;99.90
4749;DHT22;2388;53.582;9.962;2023-07-20T07:09:57;16.50;99.90
4749;DHT22;2388;53.582;9.962;2023-07-20T07:12:23;16.60;99.90
4749;DHT22;2388;53.582;9.962;2023-07-20T07:14:48;16.60;99.90
4749;DHT22;2388;53.582;9.962;2023-07-20T07:17:14;16.60;99.90
4749;DHT22;2388;53.582;9.962;2023-07-20T07:19:40;16.70;99.90
4749;DHT22;2388;53.582;9.962;2023-07-20T07:22:06;16.70;99.90
4749;DHT22;2388;53.582;9.962;2023-07-20T07:24:31;16.70;99.90
4749;DHT22;2388;53.582;9.962;2023-07-20T07:26:59;16.80;99.90
4749;DHT22;2388;53.582;9.962;2023-07-20T07:29:25;16.80;99.90
4749;DHT22;2388;53.582;9.962;2023-07-20T07:31:51;16.80;99.90
4749;DHT22;2388;53.582;9.962;2023-07-20T07:34:16;16.80;99.90
4749;DHT22;2388;53.582;9.962;2023-07-20T07:36:43;16.80;99.90
4749;DHT22;2388;53.582;9.962;2023-07-20T07:39:09;16.90;99.90
4749;DHT22;2388;53.582;9.962;2023-07-20T07:41:35;16.80;99.90
4749;DHT22;2388;53.582;9.962;2023-07-20T07:44:00;16.80;99.90
4749;DHT22;2388;53.582;9.962;2023-07-20T07:46:26;16.70;99.90
4749;DHT22;2388;53.582;9.962;2023-07-20T07:48:51;16.80;99.90
4749;DHT22;2388;53.582;9.962;2023-07-20T07:51:17;16.90;99.90
4749;DHT22;2388;53.582;9.962;2023-07-20T07:53:42;17.00;99.90
4749;DHT22;2388;53.582;9.962;2023-07-20T07:56:09;17.00;99.90
4749;DHT22;2388;53.582;9.962;2023-07-20T07:58:34;17.10;99.90
4749;DHT22;2388;53.582;9.962;2023-07-20T08:01:00;17.10;99.90
4749;DHT22;2388;53.582;9.962;2023-07-20T08:03:25;17.10;99.90
4749;DHT22;2388;53.582;9.962;2023-07-20T08:05:54;17.20;99.90
4749;DHT22;2388;53.582;9.962;2023-07-20T08:08:20;17.20;99.90
4749;DHT22;2388;53.582;9.962;2023-07-20T08:10:46;17.20;99.90
4749;DHT22;2388;53.582;9.962;2023-07-20T08:13:12;17.20;99.90
4749;DHT22;2388;53.582;9.962;2023-07-20T08:15:38;17.20;99.90
4749;DHT22;2388;53.582;9.962;2023-07-20T08:18:03;17.30;99.90
4749;DHT22;2388;53.582;9.962;2023-07-20T08:20:29;17.40;99.90
4749;DHT22;2388;53.582;9.962;2023-07-20T08:22:55;17.40;99.90
4749;DHT22;2388;53.582;9.962;2023-07-20T08:25:21;17.40;99.90
4749;DHT22;2388;53.582;9.962;2023-07-20T08:27:47;17.50;99.90
4749;DHT22;2388;53.582;9.962;2023-07-20T08:30:13;17.50;99.90
4749;DHT22;2388;53.582;9.962;2023-07-20T08:32:38;17.50;99.90
4749;DHT22;2388;53.582;9.962;2023-07-20T08:35:05;17.50;99.90
4749;DHT22;2388;53.582;9.962;2023-07-20T08:37:31;17.60;99.90
4749;DHT22;2388;53.582;9.962;2023-07-20T08:39:56;17.70;99.90
4749;DHT22;2388;53.582;9.962;2023-07-20T08:42:22;17.70;99.90
4749;DHT22;2388;53.582;9.962;2023-07-20T08:44:48;17.80;99.90
4749;DHT22;2388;53.582;9.962;2023-07-20T08:47:15;17.80;99.90
4749;DHT22;2388;53.582;9.962;2023-07-20T08:49:41;17.70;99.90
4749;DHT22;2388;53.582;9.962;2023-07-20T08:52:07;17.60;99.90
4749;DHT22;2388;53.582;9.962;2023-07-20T08:54:33;17.50;99.90
4749;DHT22;2388;53.582;9.962;2023-07-20T08:57:04;17.30;99.90
4749;DHT22;2388;53.582;9.962;2023-07-20T08:59:30;17.30;99.90
4749;DHT22;2388;53.582;9.962;2023-07-20T09:01:58;17.30;99.90
4749;DHT22;2388;53.582;9.962;2023-07-20T09:04:24;17.30;99.90
4749;DHT22;2388;53.582;9.962;2023-07-20T09:06:50;17.20;99.90
4749;DHT22;2388;53.582;9.962;2023-07-20T09:09:16;17.30;99.90
4749;DHT22;2388;53.582;9.962;2023-07-20T09:11:42;17.30;99.90
4749;DHT22;2388;53.582;9.962;2023-07-20T09:14:09;17.40;99.90
4749;DHT22;2388;53.582;9.962;2023-07-20T09:16:55;17.40;99.90
4749;DHT22;2388;53.582;9.962;2023-07-20T09:19:21;17.50;99.90
4749;DHT22;2388;53.582;9.962;2023-07-20T09:21:50;17.50;99.90
4749;DHT22;2388;53.582;9.962;2023-07-20T09:24:17;17.60;99.90
4749;DHT22;2388;53.582;9.962;2023-07-20T09:26:44;17.70;99.90
4749;DHT22;2388;53.582;9.962;2023-07-20T09:29:10;17.70;99.90
4749;DHT22;2388;53.582;9.962;2023-07-20T09:31:37;17.60;99.90
4749;DHT22;2388;53.582;9.962;2023-07-20T09:34:04;17.40;99.90
4749;DHT22;2388;53.582;9.962;2023-07-20T09:36:33;17.30;99.90
4749;DHT22;2388;53.582;9.962;2023-07-20T09:38:59;17.20;99.90
4749;DHT22;2388;53.582;9.962;2023-07-20T09:41:25;17.20;99.90
4749;DHT22;2388;53.582;9.962;2023-07-20T09:43:52;17.20;99.90
4749;DHT22;2388;53.582;9.962;2023-07-20T09:46:18;17.10;99.90
4749;DHT22;2388;53.582;9.962;2023-07-20T09:48:54;17.20;99.90
4749;DHT22;2388;53.582;9.962;2023-07-20T09:51:23;17.30;99.90
4749;DHT22;2388;53.582;9.962;2023-07-20T09:53:52;17.20;99.90
4749;DHT22;2388;53.582;9.962;2023-07-20T09:56:21;17.20;99.90
4749;DHT22;2388;53.582;9.962;2023-07-20T09:58:47;17.20;99.90
4749;DHT22;2388;53.582;9.962;2023-07-20T10:01:17;17.20;99.90
4749;DHT22;2388;53.582;9.962;2023-07-20T10:03:45;17.30;99.90
4749;DHT22;2388;53.582;9.962;2023-07-20T10:06:15;17.30;99.90
4749;DHT22;2388;53.582;9.962;2023-07-20T10:08:44;17.30;99.90
4749;DHT22;2388;53.582;9.962;2023-07-20T10:11:12;17.40;99.90
4749;DHT22;2388;53.582;9.962;2023-07-20T10:13:41;17.60;99.90
4749;DHT22;2388;53.582;9.962;2023-07-20T10:16:12;17.70;99.90
4749;DHT22;2388;53.582;9.962;2023-07-20T10:19:00;17.80;99.90
4749;DHT22;2388;53.582;9.962;2023-07-20T10:21:27;17.80;99.90
4749;DHT22;2388;53.582;9.962;2023-07-20T10:23:56;17.80;99.90
4749;DHT22;2388;53.582;9.962;2023-07-20T10:26:22;18.00;99.90
4749;DHT22;2388;53.582;9.962;2023-07-20T10:28:48;18.00;99.90
4749;DHT22;2388;53.582;9.962;2023-07-20T10:31:13;18.10;99.90
4749;DHT22;2388;53.582;9.962;2023-07-20T10:33:41;18.10;99.90
4749;DHT22;2388;53.582;9.962;2023-07-20T10:36:07;18.10;99.90
4749;DHT22;2388;53.582;9.962;2023-07-20T10:38:42;18.10;99.90
4749;DHT22;2388;53.582;9.962;2023-07-20T10:41:27;18.20;99.90
4749;DHT22;2388;53.582;9.962;2023-07-20T10:43:58;18.20;99.90
4749;DHT22;2388;53.582;9.962;2023-07-20T10:46:42;18.20;99.90
4749;DHT22;2388;53.582;9.962;2023-07-20T10:49:12;18.20;99.90
4749;DHT22;2388;53.582;9.962;2023-07-20T10:51:41;18.30;99.90
4749;DHT22;2388;53.582;9.962;2023-07-20T10:57:22;18.40;99.90
4749;DHT22;2388;53.582;9.962;2023-07-20T10:59:48;18.40;99.90
4749;DHT22;2388;53.582;9.962;2023-07-20T11:02:18;18.30;99.90
4749;DHT22;2388;53.582;9.962;2023-07-20T11:04:46;18.30;99.90
4749;DHT22;2388;53.582;9.962;2023-07-20T11:07:17;18.40;99.90
4749;DHT22;2388;53.582;9.962;2023-07-20T11:09:43;18.60;99.90
4749;DHT22;2388;53.582;9.962;2023-07-20T11:12:13;18.50;99.90
4749;DHT22;2388;53.582;9.962;2023-07-20T11:14:42;18.40;99.90
4749;DHT22;2388;53.582;9.962;2023-07-20T11:17:15;18.40;99.90
4749;DHT22;2388;53.582;9.962;2023-07-20T11:19:41;18.40;99.90
4749;DHT22;2388;53.582;9.962;2023-07-20T11:22:07;18.30;99.90
4749;DHT22;2388;53.582;9.962;2023-07-20T11:24:39;18.30;99.90
4749;DHT22;2388;53.582;9.962;2023-07-20T11:27:05;18.30;99.90
4749;DHT22;2388;53.582;9.962;2023-07-20T11:29:31;18.40;99.90
4749;DHT22;2388;53.582;9.962;2023-07-20T11:31:57;18.40;99.90
4749;DHT22;2388;53.582;9.962;2023-07-20T11:34:24;18.40;99.90
4749;DHT22;2388;53.582;9.962;2023-07-20T11:36:51;18.40;99.90
4749;DHT22;2388;53.582;9.962;2023-07-20T11:39:18;18.50;99.90
4749;DHT22;2388;53.582;9.962;2023-07-20T11:42:05;18.50;99.90
4749;DHT22;2388;53.582;9.962;2023-07-20T11:44:32;18.60;99.90
4749;DHT22;2388;53.582;9.962;2023-07-20T11:47:02;18.60;99.90
4749;DHT22;2388;53.582;9.962;2023-07-20T11:49:29;18.70;99.90
4749;DHT22;2388;53.582;9.962;2023-07-20T11:51:56;18.90;99.90
4749;DHT22;2388;53.582;9.962;2023-07-20T11:54:21;19.10;99.90
4749;DHT22;2388;53.582;9.962;2023-07-20T11:56:48;19.10;99.90
4749;DHT22;2388;53.582;9.962;2023-07-20T11:59:13;19.10;99.90
4749;DHT22;2388;53.582;9.962;2023-07-20T12:01:39;19.20;99.90
4749;DHT22;2388;53.582;9.962;2023-07-20T12:04:04;19.20;99.90
4749;DHT22;2388;53.582;9.962;2023-07-20T12:06:32;19.20;99.90
4749;DHT22;2388;53.582;9.962;2023-07-20T12:08:58;19.30;99.90
4749;DHT22;2388;53.582;9.962;2023-07-20T12:11:35;19.40;99.90
4749;DHT22;2388;53.582;9.962;2023-07-20T12:14:01;19.50;99.90
4749;DHT22;2388;53.582;9.962;2023-07-20T12:16:28;19.50;99.90
4749;DHT22;2388;53.582;9.962;2023-07-20T12:19:01;19.50;99.90
4749;DHT22;2388;53.582;9.962;2023-07-20T12:21:27;19.60;99.90
4749;DHT22;2388;53.582;9.962;2023-07-20T12:23:54;19.60;99.90
4749;DHT22;2388;53.582;9.962;2023-07-20T12:26:21;19.60;99.90
4749;DHT22;2388;53.582;9.962;2023-07-20T12:28:49;19.50;99.90
4749;DHT22;2388;53.582;9.962;2023-07-20T12:31:14;19.40;99.90
4749;DHT22;2388;53.582;9.962;2023-07-20T12:33:40;19.10;99.90
4749;DHT22;2388;53.582;9.962;2023-07-20T12:36:05;19.00;99.90
4749;DHT22;2388;53.582;9.962;2023-07-20T12:38:31;19.10;99.90
4749;DHT22;2388;53.582;9.962;2023-07-20T12:40:57;19.10;99.90
4749;DHT22;2388;53.582;9.962;2023-07-20T12:43:24;19.20;99.90
4749;DHT22;2388;53.582;9.962;2023-07-20T12:45:49;19.30;99.90
4749;DHT22;2388;53.582;9.962;2023-07-20T12:48:15;19.30;99.90
4749;DHT22;2388;53.582;9.962;2023-07-20T12:50:40;19.30;99.90
4749;DHT22;2388;53.582;9.962;2023-07-20T12:53:06;19.30;99.90
4749;DHT22;2388;53.582;9.962;2023-07-20T12:55:32;19.30;99.90
4749;DHT22;2388;53.582;9.962;2023-07-20T12:57:57;19.40;99.90
4749;DHT22;2388;53.582;9.962;2023-07-20T13:00:23;19.60;99.90
4749;DHT22;2388;53.582;9.962;2023-07-20T13:02:49;20.00;99.90
4749;DHT22;2388;53.582;9.962;2023-07-20T13:05:15;20.60;99.90
4749;DHT22;2388;53.582;9.962;2023-07-20T13:07:41;20.70;99.90
4749;DHT22;2388;53.582;9.962;2023-07-20T13:10:07;20.90;99.90
4749;DHT22;2388;53.582;9.962;2023-07-20T13:12:34;21.40;99.90
4749;DHT22;2388;53.582;9.962;2023-07-20T13:15:02;21.90;99.90
4749;DHT22;2388;53.582;9.962;2023-07-20T13:17:34;22.20;99.90
4749;DHT22;2388;53.582;9.962;2023-07-20T13:20:00;22.50;99.90
4749;DHT22;2388;53.582;9.962;2023-07-20T13:22:25;22.90;99.90
4749;DHT22;2388;53.582;9.962;2023-07-20T13:24:53;22.60;99.90
4749;DHT22;2388;53.582;9.962;2023-07-20T13:27:19;22.60;99.90
4749;DHT22;2388;53.582;9.962;2023-07-20T13:29:45;22.70;99.90
4749;DHT22;2388;53.582;9.962;2023-07-20T13:32:15;22.80;99.90
4749;DHT22;2388;53.582;9.962;2023-07-20T13:34:40;22.90;99.90
4749;DHT22;2388;53.582;9.962;2023-07-20T13:37:06;22.80;99.90
4749;DHT22;2388;53.582;9.962;2023-07-20T13:39:32;22.80;99.90
4749;DHT22;2388;53.582;9.962;2023-07-20T13:41:57;23.00;99.90
4749;DHT22;2388;53.582;9.962;2023-07-20T13:44:23;23.20;99.90
4749;DHT22;2388;53.582;9.962;2023-07-20T13:46:49;23.60;99.90
4749;DHT22;2388;53.582;9.962;2023-07-20T13:49:15;23.80;99.90
4749;DHT22;2388;53.582;9.962;2023-07-20T13:51:41;23.50;99.90
4749;DHT22;2388;53.582;9.962;2023-07-20T13:54:08;23.10;99.90
4749;DHT22;2388;53.582;9.962;2023-07-20T13:56:34;22.90;99.90
4749;DHT22;2388;53.582;9.962;2023-07-20T13:58:59;23.10;99.90
4749;DHT22;2388;53.582;9.962;2023-07-20T14:01:25;23.20;99.90
4749;DHT22;2388;53.582;9.962;2023-07-20T14:03:51;23.20;99.90
4749;DHT22;2388;53.582;9.962;2023-07-20T14:06:16;23.20;99.90
4749;DHT22;2388;53.582;9.962;2023-07-20T14:08:43;23.30;99.90
4749;DHT22;2388;53.582;9.962;2023-07-20T14:11:12;23.40;99.90
4749;DHT22;2388;53.582;9.962;2023-07-20T14:13:37;23.20;99.90
4749;DHT22;2388;53.582;9.962;2023-07-20T14:16:03;22.90;99.90
4749;DHT22;2388;53.582;9.962;2023-07-20T14:18:29;22.60;99.90
4749;DHT22;2388;53.582;9.962;2023-07-20T14:20:54;22.50;99.90
4749;DHT22;2388;53.582;9.962;2023-07-20T14:23:20;22.50;99.90
4749;DHT22;2388;53.582;9.962;2023-07-20T14:25:45;22.50;99.90
4749;DHT22;2388;53.582;9.962;2023-07-20T14:28:11;22.40;99.90
4749;DHT22;2388;53.582;9.962;2023-07-20T14:30:37;22.40;99.90
4749;DHT22;2388;53.582;9.962;2023-07-20T14:33:02;22.10;99.90
4749;DHT22;2388;53.582;9.962;2023-07-20T14:35:28;22.00;99.90
4749;DHT22;2388;53.582;9.962;2023-07-20T14:37:53;21.90;99.90
4749;DHT22;2388;53.582;9.962;2023-07-20T14:40:19;21.80;99.90
4749;DHT22;2388;53.582;9.962;2023-07-20T14:42:44;21.60;99.90
4749;DHT22;2388;53.582;9.962;2023-07-20T14:45:10;21.50;99.90
4749;DHT22;2388;53.582;9.962;2023-07-20T14:47:35;21.50;99.90
4749;DHT22;2388;53.582;9.962;2023-07-20T14:50:02;21.30;99.90
4749;DHT22;2388;53.582;9.962;2023-07-20T14:52:28;21.30;99.90
4749;DHT22;2388;53.582;9.962;2023-07-20T14:54:54;21.20;99.90
4749;DHT22;2388;53.582;9.962;2023-07-20T14:57:20;21.10;99.90
4749;DHT22;2388;53.582;9.962;2023-07-20T14:59:48;21.00;99.90
4749;DHT22;2388;53.582;9.962;2023-07-20T15:02:14;21.00;99.90
4749;DHT22;2388;53.582;9.962;2023-07-20T15:04:48;20.90;99.90
4749;DHT22;2388;53.582;9.962;2023-07-20T15:07:16;20.80;99.90
4749;DHT22;2388;53.582;9.962;2023-07-20T15:09:41;20.70;99.90
4749;DHT22;2388;53.582;9.962;2023-07-20T15:12:07;20.60;99.90
4749;DHT22;2388;53.582;9.962;2023-07-20T15:14:33;20.60;99.90
4749;DHT22;2388;53.582;9.962;2023-07-20T15:16:59;20.50;99.90
4749;DHT22;2388;53.582;9.962;2023-07-20T15:19:24;20.40;99.90
4749;DHT22;2388;53.582;9.962;2023-07-20T15:21:50;20.30;99.90
4749;DHT22;2388;53.582;9.962;2023-07-20T15:24:15;20.20;99.90
4749;DHT22;2388;53.582;9.962;2023-07-20T15:26:40;20.10;99.90
4749;DHT22;2388;53.582;9.962;2023-07-20T15:29:06;20.20;99.90
4749;DHT22;2388;53.582;9.962;2023-07-20T15:31:32;20.20;99.90
4749;DHT22;2388;53.582;9.962;2023-07-20T15:33:57;20.20;99.90
4749;DHT22;2388;53.582;9.962;2023-07-20T15:36:23;20.20;99.90
4749;DHT22;2388;53.582;9.962;2023-07-20T15:38:49;20.20;99.90
4749;DHT22;2388;53.582;9.962;2023-07-20T15:41:14;20.30;99.90
4749;DHT22;2388;53.582;9.962;2023-07-20T15:43:40;20.20;99.90
4749;DHT22;2388;53.582;9.962;2023-07-20T15:48:53;20.20;99.90
4749;DHT22;2388;53.582;9.962;2023-07-20T15:51:19;20.20;99.90
4749;DHT22;2388;53.582;9.962;2023-07-20T15:53:45;20.10;99.90
4749;DHT22;2388;53.582;9.962;2023-07-20T15:56:11;20.10;99.90
4749;DHT22;2388;53.582;9.962;2023-07-20T15:58:36;20.10;99.90
4749;DHT22;2388;53.582;9.962;2023-07-20T16:01:02;20.10;99.90
4749;DHT22;2388;53.582;9.962;2023-07-20T16:03:27;20.10;99.90
4749;DHT22;2388;53.582;9.962;2023-07-20T16:05:53;20.00;99.90
4749;DHT22;2388;53.582;9.962;2023-07-20T16:08:18;20.00;99.90